Fort Wayne, IN (46801)

10:10 AM EDT on August 30, 2015 (GMT -0400)
Hillegas Road, Ft.Wayne, IN | | Change Station
CLOSE
Current Station
Personal Weather Station
Location: Fort Wayne, IN
Elevation: 823 ft
Nearby Weather Stations

Elev 823 ft 41.10 °N, 85.19 °W | Updated 4 minutes ago

Partly Cloudy
Partly Cloudy
76.5 °F
Feels Like 77 °F
N
2.2
Wind Variable Wind from South

Today
High -- | Low -- °F
--% Chance of Precip.
Yesterday
High -- | Low -- °F
Precip. -- in
7:05 AM 8:16 PM
Full, 99% visible
Pressure 30.08 in
Visibility 7.0 miles
Clouds Few 13000 ft
Heat Index 77 °F
Dew Point 73 °F
Humidity 90%
Rainfall 0.00 in
Snow Depth Not available.
UV 3 out of 12
Pollen 8.00 out of 12
Air Quality Not available.
Flu Activity Not available.
METAR KFWA 301354Z 22007KT 7SM FEW130 23/20 A3009 RMK AO2 SLP184 T02330200
Pressure 30.08 in
Visibility 7.0 miles
Clouds Few 13000 ft
Heat Index 77 °F
Dew Point 73 °F
Humidity 90%
Rainfall 0.00 in
Snow Depth Not available.
UV 3 out of 12
Pollen 8.00 out of 12
Air Quality Not available.
Flu Activity Not available.
METAR KFWA 301354Z 22007KT 7SM FEW130 23/20 A3009 RMK AO2 SLP184 T02330200

10-Day Weather Forecast

×

Almanac

Astronomy

Aug. 30, 2015 Rise Set
Actual Time
Civil Twilight
Nautical Twilight
Astronomical Twilight
Moon
Length of Visible Light
Length of Day
Tomorrow will be .
, % of the Moon is Illuminated

Today's Extremes

State Highs State Lows

Community

WunderPhotos

Upload Photos

1,850,968 photos uploaded!

WunderBlogs® & News

Nearby

Air Quality

  Air Quality AQ Index Pollutant
Not available.

Snow Depth

Station Depth Elevation

Earthquake Activity

City Distance Mag. Time & Date
Minimum magnitude displayed is 2.5.

Coastal Water Temperatures

Place Temperature

Stations

Nearby Weather Stations

Station Location Temp. Windchill Dew Point Humidity Wind Precip. Elev Updated Type